sensor_id;sensor_type;location;lat;lon;timestamp;P1;durP1;ratioP1;P2;durP2;ratioP2
48871;SDS011;36154;51.674;7.824;2023-04-03T00:00:55;0.20;;;0.20;;
48871;SDS011;36154;51.674;7.824;2023-04-03T00:03:21;0.10;;;0.10;;
48871;SDS011;36154;51.674;7.824;2023-04-03T00:05:47;0.20;;;0.20;;
48871;SDS011;36154;51.674;7.824;2023-04-03T00:08:12;0.15;;;0.15;;
48871;SDS011;36154;51.674;7.824;2023-04-03T00:10:37;0.15;;;0.15;;
48871;SDS011;36154;51.674;7.824;2023-04-03T00:13:03;0.20;;;0.20;;
48871;SDS011;36154;51.674;7.824;2023-04-03T00:15:29;0.20;;;0.20;;
48871;SDS011;36154;51.674;7.824;2023-04-03T00:17:55;0.10;;;0.10;;
48871;SDS011;36154;51.674;7.824;2023-04-03T00:20:20;0.10;;;0.10;;
48871;SDS011;36154;51.674;7.824;2023-04-03T00:22:45;0.20;;;0.20;;
48871;SDS011;36154;51.674;7.824;2023-04-03T00:25:11;0.20;;;0.20;;
48871;SDS011;36154;51.674;7.824;2023-04-03T00:27:37;0.20;;;0.20;;
48871;SDS011;36154;51.674;7.824;2023-04-03T00:30:04;0.13;;;0.13;;
48871;SDS011;36154;51.674;7.824;2023-04-03T00:32:30;0.10;;;0.10;;
48871;SDS011;36154;51.674;7.824;2023-04-03T00:34:56;0.20;;;0.20;;
48871;SDS011;36154;51.674;7.824;2023-04-03T00:37:21;0.20;;;0.20;;
48871;SDS011;36154;51.674;7.824;2023-04-03T00:39:46;0.28;;;0.20;;
48871;SDS011;36154;51.674;7.824;2023-04-03T00:42:11;0.15;;;0.15;;
48871;SDS011;36154;51.674;7.824;2023-04-03T00:47:02;0.20;;;0.20;;
48871;SDS011;36154;51.674;7.824;2023-04-03T00:49:30;0.40;;;0.20;;
48871;SDS011;36154;51.674;7.824;2023-04-03T00:51:56;0.15;;;0.15;;
48871;SDS011;36154;51.674;7.824;2023-04-03T00:54:23;0.20;;;0.20;;
48871;SDS011;36154;51.674;7.824;2023-04-03T00:56:49;0.15;;;0.10;;
48871;SDS011;36154;51.674;7.824;2023-04-03T00:59:16;0.13;;;0.13;;
48871;SDS011;36154;51.674;7.824;2023-04-03T01:01:48;0.20;;;0.20;;
48871;SDS011;36154;51.674;7.824;2023-04-03T01:04:27;0.20;;;0.20;;
48871;SDS011;36154;51.674;7.824;2023-04-03T01:06:55;0.20;;;0.20;;
48871;SDS011;36154;51.674;7.824;2023-04-03T01:09:22;0.10;;;0.10;;
48871;SDS011;36154;51.674;7.824;2023-04-03T01:11:48;0.10;;;0.10;;
48871;SDS011;36154;51.674;7.824;2023-04-03T01:14:13;0.10;;;0.10;;
48871;SDS011;36154;51.674;7.824;2023-04-03T01:16:38;0.10;;;0.10;;
48871;SDS011;36154;51.674;7.824;2023-04-03T01:19:05;0.10;;;0.10;;
48871;SDS011;36154;51.674;7.824;2023-04-03T01:26:58;0.10;;;0.10;;
48871;SDS011;36154;51.674;7.824;2023-04-03T01:29:28;0.10;;;0.10;;
48871;SDS011;36154;51.674;7.824;2023-04-03T01:31:57;0.10;;;0.10;;
48871;SDS011;36154;51.674;7.824;2023-04-03T01:34:24;0.10;;;0.10;;
48871;SDS011;36154;51.674;7.824;2023-04-03T01:36:50;0.10;;;0.10;;
48871;SDS011;36154;51.674;7.824;2023-04-03T01:39:16;0.10;;;0.10;;
48871;SDS011;36154;51.674;7.824;2023-04-03T01:41:42;0.10;;;0.10;;
48871;SDS011;36154;51.674;7.824;2023-04-03T01:44:07;0.10;;;0.10;;
48871;SDS011;36154;51.674;7.824;2023-04-03T01:46:33;0.20;;;0.20;;
48871;SDS011;36154;51.674;7.824;2023-04-03T01:48:58;0.10;;;0.10;;
48871;SDS011;36154;51.674;7.824;2023-04-03T01:51:23;0.20;;;0.20;;
48871;SDS011;36154;51.674;7.824;2023-04-03T01:53:49;0.10;;;0.10;;
48871;SDS011;36154;51.674;7.824;2023-04-03T01:56:14;0.25;;;0.10;;
48871;SDS011;36154;51.674;7.824;2023-04-03T01:58:40;0.10;;;0.10;;
48871;SDS011;36154;51.674;7.824;2023-04-03T02:01:05;0.10;;;0.10;;
48871;SDS011;36154;51.674;7.824;2023-04-03T02:03:31;0.10;;;0.10;;
48871;SDS011;36154;51.674;7.824;2023-04-03T02:05:57;0.10;;;0.10;;
48871;SDS011;36154;51.674;7.824;2023-04-03T02:08:22;0.10;;;0.10;;
48871;SDS011;36154;51.674;7.824;2023-04-03T02:10:48;0.20;;;0.20;;
48871;SDS011;36154;51.674;7.824;2023-04-03T02:13:14;0.10;;;0.10;;
48871;SDS011;36154;51.674;7.824;2023-04-03T02:15:40;0.10;;;0.10;;
48871;SDS011;36154;51.674;7.824;2023-04-03T02:18:06;0.20;;;0.20;;
48871;SDS011;36154;51.674;7.824;2023-04-03T02:20:32;0.10;;;0.10;;
48871;SDS011;36154;51.674;7.824;2023-04-03T02:22:58;0.43;;;0.20;;
48871;SDS011;36154;51.674;7.824;2023-04-03T02:25:24;0.85;;;0.43;;
48871;SDS011;36154;51.674;7.824;2023-04-03T02:27:50;0.00;;;0.00;;
48871;SDS011;36154;51.674;7.824;2023-04-03T02:30:15;0.10;;;0.10;;
48871;SDS011;36154;51.674;7.824;2023-04-03T02:32:41;1.08;;;0.10;;
48871;SDS011;36154;51.674;7.824;2023-04-03T02:35:07;0.10;;;0.10;;
48871;SDS011;36154;51.674;7.824;2023-04-03T02:37:33;0.03;;;0.03;;
48871;SDS011;36154;51.674;7.824;2023-04-03T02:39:59;0.10;;;0.10;;
48871;SDS011;36154;51.674;7.824;2023-04-03T02:42:25;0.30;;;0.20;;
48871;SDS011;36154;51.674;7.824;2023-04-03T02:44:50;0.10;;;0.10;;
48871;SDS011;36154;51.674;7.824;2023-04-03T02:47:15;0.20;;;0.10;;
48871;SDS011;36154;51.674;7.824;2023-04-03T02:49:41;0.10;;;0.10;;
48871;SDS011;36154;51.674;7.824;2023-04-03T02:52:08;0.15;;;0.15;;
48871;SDS011;36154;51.674;7.824;2023-04-03T02:54:33;0.10;;;0.10;;
48871;SDS011;36154;51.674;7.824;2023-04-03T02:56:59;0.13;;;0.13;;
48871;SDS011;36154;51.674;7.824;2023-04-03T02:59:24;0.20;;;0.20;;
48871;SDS011;36154;51.674;7.824;2023-04-03T03:01:49;0.10;;;0.10;;
48871;SDS011;36154;51.674;7.824;2023-04-03T03:04:15;0.22;;;0.10;;
48871;SDS011;36154;51.674;7.824;2023-04-03T03:06:40;0.10;;;0.10;;
48871;SDS011;36154;51.674;7.824;2023-04-03T03:09:06;0.10;;;0.10;;
48871;SDS011;36154;51.674;7.824;2023-04-03T03:11:31;0.10;;;0.10;;
48871;SDS011;36154;51.674;7.824;2023-04-03T03:13:57;0.10;;;0.10;;
48871;SDS011;36154;51.674;7.824;2023-04-03T03:16:22;0.10;;;0.10;;
48871;SDS011;36154;51.674;7.824;2023-04-03T03:18:48;0.10;;;0.10;;
48871;SDS011;36154;51.674;7.824;2023-04-03T03:21:13;0.10;;;0.10;;
48871;SDS011;36154;51.674;7.824;2023-04-03T03:23:39;0.10;;;0.10;;
48871;SDS011;36154;51.674;7.824;2023-04-03T03:26:05;0.08;;;0.08;;
48871;SDS011;36154;51.674;7.824;2023-04-03T03:28:32;0.10;;;0.10;;
48871;SDS011;36154;51.674;7.824;2023-04-03T03:30:58;0.10;;;0.10;;
48871;SDS011;36154;51.674;7.824;2023-04-03T03:33:24;0.10;;;0.10;;
48871;SDS011;36154;51.674;7.824;2023-04-03T03:35:51;0.10;;;0.10;;
48871;SDS011;36154;51.674;7.824;2023-04-03T03:38:17;0.68;;;0.10;;
48871;SDS011;36154;51.674;7.824;2023-04-03T03:40:42;0.10;;;0.10;;
48871;SDS011;36154;51.674;7.824;2023-04-03T03:43:08;0.08;;;0.08;;
48871;SDS011;36154;51.674;7.824;2023-04-03T03:45:33;0.10;;;0.10;;
48871;SDS011;36154;51.674;7.824;2023-04-03T03:47:59;0.10;;;0.10;;
48871;SDS011;36154;51.674;7.824;2023-04-03T03:50:24;0.10;;;0.10;;
48871;SDS011;36154;51.674;7.824;2023-04-03T03:52:49;0.10;;;0.10;;
48871;SDS011;36154;51.674;7.824;2023-04-03T03:55:15;0.17;;;0.10;;
48871;SDS011;36154;51.674;7.824;2023-04-03T03:57:40;0.10;;;0.10;;
48871;SDS011;36154;51.674;7.824;2023-04-03T04:00:06;0.10;;;0.10;;
48871;SDS011;36154;51.674;7.824;2023-04-03T04:02:32;0.10;;;0.10;;
48871;SDS011;36154;51.674;7.824;2023-04-03T04:04:57;0.20;;;0.10;;
48871;SDS011;36154;51.674;7.824;2023-04-03T04:07:23;0.10;;;0.10;;
48871;SDS011;36154;51.674;7.824;2023-04-03T04:09:48;0.13;;;0.13;;
48871;SDS011;36154;51.674;7.824;2023-04-03T04:12:13;0.13;;;0.13;;
48871;SDS011;36154;51.674;7.824;2023-04-03T04:14:39;0.10;;;0.10;;
48871;SDS011;36154;51.674;7.824;2023-04-03T04:17:04;0.10;;;0.10;;
48871;SDS011;36154;51.674;7.824;2023-04-03T04:19:30;0.10;;;0.00;;
48871;SDS011;36154;51.674;7.824;2023-04-03T04:21:55;0.20;;;0.20;;
48871;SDS011;36154;51.674;7.824;2023-04-03T04:24:20;0.17;;;0.10;;
48871;SDS011;36154;51.674;7.824;2023-04-03T04:26:47;0.13;;;0.13;;
48871;SDS011;36154;51.674;7.824;2023-04-03T04:29:13;1.30;;;0.10;;
48871;SDS011;36154;51.674;7.824;2023-04-03T04:31:41;0.20;;;0.20;;
48871;SDS011;36154;51.674;7.824;2023-04-03T04:34:06;0.20;;;0.20;;
48871;SDS011;36154;51.674;7.824;2023-04-03T04:36:31;0.98;;;0.20;;
48871;SDS011;36154;51.674;7.824;2023-04-03T04:38:56;0.63;;;0.10;;
48871;SDS011;36154;51.674;7.824;2023-04-03T04:41:23;1.55;;;0.20;;
48871;SDS011;36154;51.674;7.824;2023-04-03T04:43:49;0.63;;;0.13;;
48871;SDS011;36154;51.674;7.824;2023-04-03T04:46:15;0.47;;;0.20;;
48871;SDS011;36154;51.674;7.824;2023-04-03T04:48:40;0.50;;;0.20;;
48871;SDS011;36154;51.674;7.824;2023-04-03T04:51:06;0.22;;;0.20;;
48871;SDS011;36154;51.674;7.824;2023-04-03T04:53:32;0.77;;;0.30;;
48871;SDS011;36154;51.674;7.824;2023-04-03T04:55:57;1.08;;;0.28;;
48871;SDS011;36154;51.674;7.824;2023-04-03T04:58:23;3.50;;;0.80;;
48871;SDS011;36154;51.674;7.824;2023-04-03T05:00:48;1.20;;;0.65;;
48871;SDS011;36154;51.674;7.824;2023-04-03T05:03:14;2.25;;;0.90;;
48871;SDS011;36154;51.674;7.824;2023-04-03T05:05:39;2.83;;;1.20;;
48871;SDS011;36154;51.674;7.824;2023-04-03T05:08:05;4.05;;;1.25;;
48871;SDS011;36154;51.674;7.824;2023-04-03T05:10:30;4.07;;;1.02;;
48871;SDS011;36154;51.674;7.824;2023-04-03T05:12:56;3.78;;;0.95;;
48871;SDS011;36154;51.674;7.824;2023-04-03T05:15:22;2.28;;;0.95;;
48871;SDS011;36154;51.674;7.824;2023-04-03T05:17:47;2.33;;;1.27;;
48871;SDS011;36154;51.674;7.824;2023-04-03T05:20:12;1.92;;;1.05;;
48871;SDS011;36154;51.674;7.824;2023-04-03T05:22:38;3.45;;;1.20;;
48871;SDS011;36154;51.674;7.824;2023-04-03T05:25:04;3.00;;;0.98;;
48871;SDS011;36154;51.674;7.824;2023-04-03T05:27:30;4.80;;;1.00;;
48871;SDS011;36154;51.674;7.824;2023-04-03T05:29:55;1.27;;;0.90;;
48871;SDS011;36154;51.674;7.824;2023-04-03T05:32:21;2.47;;;1.02;;
48871;SDS011;36154;51.674;7.824;2023-04-03T05:34:47;1.13;;;0.93;;
48871;SDS011;36154;51.674;7.824;2023-04-03T05:37:13;2.05;;;1.10;;
48871;SDS011;36154;51.674;7.824;2023-04-03T05:39:38;3.15;;;1.05;;
48871;SDS011;36154;51.674;7.824;2023-04-03T05:42:05;3.03;;;1.00;;
48871;SDS011;36154;51.674;7.824;2023-04-03T05:44:31;1.33;;;0.93;;
48871;SDS011;36154;51.674;7.824;2023-04-03T05:46:56;2.50;;;1.00;;
48871;SDS011;36154;51.674;7.824;2023-04-03T05:49:22;1.10;;;0.82;;
48871;SDS011;36154;51.674;7.824;2023-04-03T05:51:47;2.83;;;1.05;;
48871;SDS011;36154;51.674;7.824;2023-04-03T05:54:14;3.22;;;1.20;;
48871;SDS011;36154;51.674;7.824;2023-04-03T05:56:47;1.90;;;1.10;;
48871;SDS011;36154;51.674;7.824;2023-04-03T05:59:12;0.68;;;0.60;;
48871;SDS011;36154;51.674;7.824;2023-04-03T06:01:37;3.13;;;1.00;;
48871;SDS011;36154;51.674;7.824;2023-04-03T06:04:03;4.15;;;0.70;;
48871;SDS011;36154;51.674;7.824;2023-04-03T06:06:44;2.47;;;0.82;;
48871;SDS011;36154;51.674;7.824;2023-04-03T06:09:16;0.70;;;0.65;;
48871;SDS011;36154;51.674;7.824;2023-04-03T06:11:41;1.95;;;0.90;;
48871;SDS011;36154;51.674;7.824;2023-04-03T06:14:07;2.63;;;0.80;;
48871;SDS011;36154;51.674;7.824;2023-04-03T06:16:33;2.85;;;0.93;;
48871;SDS011;36154;51.674;7.824;2023-04-03T06:18:59;1.02;;;0.80;;
48871;SDS011;36154;51.674;7.824;2023-04-03T06:21:24;1.85;;;0.80;;
48871;SDS011;36154;51.674;7.824;2023-04-03T06:23:49;1.30;;;0.75;;
48871;SDS011;36154;51.674;7.824;2023-04-03T06:26:16;3.25;;;1.00;;
48871;SDS011;36154;51.674;7.824;2023-04-03T06:28:42;1.95;;;0.60;;
48871;SDS011;36154;51.674;7.824;2023-04-03T06:31:07;1.25;;;0.73;;
48871;SDS011;36154;51.674;7.824;2023-04-03T06:33:33;0.73;;;0.70;;
48871;SDS011;36154;51.674;7.824;2023-04-03T06:35:59;2.25;;;0.90;;
48871;SDS011;36154;51.674;7.824;2023-04-03T06:38:27;1.42;;;0.70;;
48871;SDS011;36154;51.674;7.824;2023-04-03T06:40:53;1.00;;;0.73;;
48871;SDS011;36154;51.674;7.824;2023-04-03T06:43:18;1.17;;;0.65;;
48871;SDS011;36154;51.674;7.824;2023-04-03T06:45:44;0.75;;;0.55;;
48871;SDS011;36154;51.674;7.824;2023-04-03T06:48:10;1.13;;;0.60;;
48871;SDS011;36154;51.674;7.824;2023-04-03T06:50:35;3.15;;;0.60;;
48871;SDS011;36154;51.674;7.824;2023-04-03T06:53:00;0.70;;;0.60;;
48871;SDS011;36154;51.674;7.824;2023-04-03T06:55:26;0.60;;;0.60;;
48871;SDS011;36154;51.674;7.824;2023-04-03T06:57:51;1.40;;;0.52;;
48871;SDS011;36154;51.674;7.824;2023-04-03T07:00:17;2.08;;;0.60;;
48871;SDS011;36154;51.674;7.824;2023-04-03T07:02:42;1.83;;;0.70;;
48871;SDS011;36154;51.674;7.824;2023-04-03T07:05:08;1.20;;;0.60;;
48871;SDS011;36154;51.674;7.824;2023-04-03T07:07:34;1.55;;;1.00;;
48871;SDS011;36154;51.674;7.824;2023-04-03T07:09:59;1.85;;;0.50;;
48871;SDS011;36154;51.674;7.824;2023-04-03T07:12:25;1.38;;;0.60;;
48871;SDS011;36154;51.674;7.824;2023-04-03T07:14:51;0.68;;;0.50;;
48871;SDS011;36154;51.674;7.824;2023-04-03T07:17:16;0.63;;;0.63;;
48871;SDS011;36154;51.674;7.824;2023-04-03T07:19:41;1.35;;;0.50;;
48871;SDS011;36154;51.674;7.824;2023-04-03T07:22:07;0.63;;;0.63;;
48871;SDS011;36154;51.674;7.824;2023-04-03T07:24:33;0.98;;;0.60;;
48871;SDS011;36154;51.674;7.824;2023-04-03T07:26:58;0.80;;;0.60;;
48871;SDS011;36154;51.674;7.824;2023-04-03T07:29:23;0.85;;;0.55;;
48871;SDS011;36154;51.674;7.824;2023-04-03T07:31:51;0.85;;;0.50;;
48871;SDS011;36154;51.674;7.824;2023-04-03T07:34:17;0.73;;;0.50;;
48871;SDS011;36154;51.674;7.824;2023-04-03T07:36:42;0.40;;;0.40;;
48871;SDS011;36154;51.674;7.824;2023-04-03T07:39:08;1.50;;;0.60;;
48871;SDS011;36154;51.674;7.824;2023-04-03T07:41:33;0.52;;;0.50;;
48871;SDS011;36154;51.674;7.824;2023-04-03T07:43:59;2.42;;;0.65;;
48871;SDS011;36154;51.674;7.824;2023-04-03T07:46:24;0.85;;;0.60;;
48871;SDS011;36154;51.674;7.824;2023-04-03T07:48:50;0.57;;;0.50;;
48871;SDS011;36154;51.674;7.824;2023-04-03T07:51:16;0.98;;;0.60;;
48871;SDS011;36154;51.674;7.824;2023-04-03T07:53:41;0.93;;;0.50;;
48871;SDS011;36154;51.674;7.824;2023-04-03T07:56:07;1.00;;;0.60;;
48871;SDS011;36154;51.674;7.824;2023-04-03T07:58:32;0.80;;;0.40;;
48871;SDS011;36154;51.674;7.824;2023-04-03T08:00:58;0.43;;;0.35;;
48871;SDS011;36154;51.674;7.824;2023-04-03T08:03:23;0.55;;;0.50;;
48871;SDS011;36154;51.674;7.824;2023-04-03T08:05:49;0.60;;;0.40;;
48871;SDS011;36154;51.674;7.824;2023-04-03T08:08:16;1.65;;;0.50;;
48871;SDS011;36154;51.674;7.824;2023-04-03T08:10:43;0.93;;;0.60;;
48871;SDS011;36154;51.674;7.824;2023-04-03T08:13:08;1.75;;;0.60;;
48871;SDS011;36154;51.674;7.824;2023-04-03T08:15:33;0.60;;;0.52;;
48871;SDS011;36154;51.674;7.824;2023-04-03T08:17:59;0.80;;;0.80;;
48871;SDS011;36154;51.674;7.824;2023-04-03T08:20:25;0.45;;;0.40;;
48871;SDS011;36154;51.674;7.824;2023-04-03T08:22:51;0.52;;;0.52;;
48871;SDS011;36154;51.674;7.824;2023-04-03T08:25:17;0.52;;;0.40;;
48871;SDS011;36154;51.674;7.824;2023-04-03T08:27:42;0.93;;;0.80;;
48871;SDS011;36154;51.674;7.824;2023-04-03T08:30:08;0.80;;;0.50;;
48871;SDS011;36154;51.674;7.824;2023-04-03T08:32:34;0.85;;;0.60;;
48871;SDS011;36154;51.674;7.824;2023-04-03T08:35:00;0.70;;;0.70;;
48871;SDS011;36154;51.674;7.824;2023-04-03T08:37:26;0.32;;;0.32;;
48871;SDS011;36154;51.674;7.824;2023-04-03T08:39:51;0.50;;;0.50;;
48871;SDS011;36154;51.674;7.824;2023-04-03T08:45:10;1.27;;;0.60;;
48871;SDS011;36154;51.674;7.824;2023-04-03T08:47:53;0.60;;;0.60;;
48871;SDS011;36154;51.674;7.824;2023-04-03T08:50:33;1.20;;;0.57;;
48871;SDS011;36154;51.674;7.824;2023-04-03T08:53:03;0.73;;;0.50;;
48871;SDS011;36154;51.674;7.824;2023-04-03T08:58:11;1.17;;;0.60;;
48871;SDS011;36154;51.674;7.824;2023-04-03T09:03:14;1.95;;;0.40;;
48871;SDS011;36154;51.674;7.824;2023-04-03T09:05:44;0.90;;;0.57;;
48871;SDS011;36154;51.674;7.824;2023-04-03T09:08:28;0.50;;;0.50;;
48871;SDS011;36154;51.674;7.824;2023-04-03T09:16:27;0.90;;;0.60;;
48871;SDS011;36154;51.674;7.824;2023-04-03T09:19:15;0.70;;;0.65;;
48871;SDS011;36154;51.674;7.824;2023-04-03T09:21:45;0.60;;;0.50;;
48871;SDS011;36154;51.674;7.824;2023-04-03T09:24:12;0.60;;;0.60;;
48871;SDS011;36154;51.674;7.824;2023-04-03T09:26:42;0.70;;;0.30;;
48871;SDS011;36154;51.674;7.824;2023-04-03T09:29:14;0.52;;;0.52;;
48871;SDS011;36154;51.674;7.824;2023-04-03T09:31:47;0.50;;;0.50;;
48871;SDS011;36154;51.674;7.824;2023-04-03T09:34:24;0.38;;;0.38;;
48871;SDS011;36154;51.674;7.824;2023-04-03T09:36:56;0.40;;;0.40;;
48871;SDS011;36154;51.674;7.824;2023-04-03T09:39:29;0.40;;;0.40;;
48871;SDS011;36154;51.674;7.824;2023-04-03T09:42:05;0.55;;;0.55;;
48871;SDS011;36154;51.674;7.824;2023-04-03T09:44:40;0.50;;;0.50;;
48871;SDS011;36154;51.674;7.824;2023-04-03T09:49:56;0.60;;;0.47;;
48871;SDS011;36154;51.674;7.824;2023-04-03T09:52:40;0.40;;;0.40;;
48871;SDS011;36154;51.674;7.824;2023-04-03T09:55:17;0.45;;;0.40;;
48871;SDS011;36154;51.674;7.824;2023-04-03T09:57:52;1.58;;;0.40;;
48871;SDS011;36154;51.674;7.824;2023-04-03T10:00:20;0.43;;;0.40;;
48871;SDS011;36154;51.674;7.824;2023-04-03T10:02:57;0.40;;;0.40;;
48871;SDS011;36154;51.674;7.824;2023-04-03T10:05:33;0.43;;;0.40;;
48871;SDS011;36154;51.674;7.824;2023-04-03T10:08:08;0.55;;;0.30;;
48871;SDS011;36154;51.674;7.824;2023-04-03T10:10:41;0.40;;;0.40;;
48871;SDS011;36154;51.674;7.824;2023-04-03T10:13:15;0.40;;;0.35;;
48871;SDS011;36154;51.674;7.824;2023-04-03T10:15:45;0.35;;;0.35;;
48871;SDS011;36154;51.674;7.824;2023-04-03T10:21:00;0.47;;;0.43;;
48871;SDS011;36154;51.674;7.824;2023-04-03T10:23:44;0.55;;;0.30;;
48871;SDS011;36154;51.674;7.824;2023-04-03T10:32:02;0.35;;;0.30;;
48871;SDS011;36154;51.674;7.824;2023-04-03T10:34:44;1.02;;;0.32;;
48871;SDS011;36154;51.674;7.824;2023-04-03T10:37:27;0.50;;;0.50;;
48871;SDS011;36154;51.674;7.824;2023-04-03T10:43:09;0.30;;;0.30;;
48871;SDS011;36154;51.674;7.824;2023-04-03T10:45:46;0.45;;;0.40;;
48871;SDS011;36154;51.674;7.824;2023-04-03T10:54:08;0.60;;;0.60;;
48871;SDS011;36154;51.674;7.824;2023-04-03T10:59:21;0.80;;;0.77;;
48871;SDS011;36154;51.674;7.824;2023-04-03T11:01:53;4.75;;;0.70;;
48871;SDS011;36154;51.674;7.824;2023-04-03T11:04:22;5.45;;;3.47;;
48871;SDS011;36154;51.674;7.824;2023-04-03T11:06:53;13.60;;;7.05;;
48871;SDS011;36154;51.674;7.824;2023-04-03T11:09:26;8.65;;;4.47;;
48871;SDS011;36154;51.674;7.824;2023-04-03T11:12:05;5.17;;;3.00;;
48871;SDS011;36154;51.674;7.824;2023-04-03T11:14:37;3.67;;;2.40;;
48871;SDS011;36154;51.674;7.824;2023-04-03T11:17:21;2.70;;;1.77;;
48871;SDS011;36154;51.674;7.824;2023-04-03T11:19:57;1.45;;;1.35;;
48871;SDS011;36154;51.674;7.824;2023-04-03T11:22:39;2.33;;;1.75;;
48871;SDS011;36154;51.674;7.824;2023-04-03T11:27:41;1.90;;;1.70;;
48871;SDS011;36154;51.674;7.824;2023-04-03T11:32:59;1.50;;;1.40;;
48871;SDS011;36154;51.674;7.824;2023-04-03T11:35:26;3.60;;;1.25;;
48871;SDS011;36154;51.674;7.824;2023-04-03T11:37:53;1.63;;;1.10;;
48871;SDS011;36154;51.674;7.824;2023-04-03T11:40:21;9.32;;;1.60;;
48871;SDS011;36154;51.674;7.824;2023-04-03T11:43:07;3.40;;;1.77;;
48871;SDS011;36154;51.674;7.824;2023-04-03T11:45:53;2.30;;;1.50;;
48871;SDS011;36154;51.674;7.824;2023-04-03T11:50:53;1.75;;;1.30;;
48871;SDS011;36154;51.674;7.824;2023-04-03T11:53:30;2.97;;;0.95;;
48871;SDS011;36154;51.674;7.824;2023-04-03T11:56:03;1.73;;;1.40;;
48871;SDS011;36154;51.674;7.824;2023-04-03T11:58:32;2.25;;;1.35;;
48871;SDS011;36154;51.674;7.824;2023-04-03T12:03:29;1.10;;;1.00;;
48871;SDS011;36154;51.674;7.824;2023-04-03T12:05:56;3.40;;;1.58;;
48871;SDS011;36154;51.674;7.824;2023-04-03T12:16:23;2.25;;;1.40;;
48871;SDS011;36154;51.674;7.824;2023-04-03T12:21:21;1.70;;;1.58;;
48871;SDS011;36154;51.674;7.824;2023-04-03T12:29:23;2.08;;;1.63;;
48871;SDS011;36154;51.674;7.824;2023-04-03T12:37:40;1.77;;;1.60;;
48871;SDS011;36154;51.674;7.824;2023-04-03T12:45:41;2.47;;;1.58;;
48871;SDS011;36154;51.674;7.824;2023-04-03T12:48:22;1.77;;;1.50;;
48871;SDS011;36154;51.674;7.824;2023-04-03T12:50:51;2.10;;;1.70;;
48871;SDS011;36154;51.674;7.824;2023-04-03T12:53:21;2.15;;;2.00;;
48871;SDS011;36154;51.674;7.824;2023-04-03T12:55:54;1.92;;;1.77;;
48871;SDS011;36154;51.674;7.824;2023-04-03T12:58:22;2.28;;;2.10;;
48871;SDS011;36154;51.674;7.824;2023-04-03T13:01:03;2.03;;;1.80;;
48871;SDS011;36154;51.674;7.824;2023-04-03T13:03:34;2.50;;;1.92;;
48871;SDS011;36154;51.674;7.824;2023-04-03T13:06:03;2.10;;;1.90;;
48871;SDS011;36154;51.674;7.824;2023-04-03T13:08:29;1.60;;;1.50;;
48871;SDS011;36154;51.674;7.824;2023-04-03T13:11:30;1.58;;;1.48;;
48871;SDS011;36154;51.674;7.824;2023-04-03T13:13:55;2.58;;;1.60;;
48871;SDS011;36154;51.674;7.824;2023-04-03T13:16:31;2.00;;;1.90;;
48871;SDS011;36154;51.674;7.824;2023-04-03T13:18:57;2.47;;;1.80;;
48871;SDS011;36154;51.674;7.824;2023-04-03T13:21:29;1.30;;;1.20;;
48871;SDS011;36154;51.674;7.824;2023-04-03T13:23:59;1.55;;;1.45;;
48871;SDS011;36154;51.674;7.824;2023-04-03T13:26:29;0.95;;;0.90;;
48871;SDS011;36154;51.674;7.824;2023-04-03T13:28:59;1.10;;;0.95;;
48871;SDS011;36154;51.674;7.824;2023-04-03T13:31:35;0.75;;;0.73;;
48871;SDS011;36154;51.674;7.824;2023-04-03T13:34:20;0.70;;;0.70;;
48871;SDS011;36154;51.674;7.824;2023-04-03T13:41:47;1.05;;;1.05;;
48871;SDS011;36154;51.674;7.824;2023-04-03T13:44:26;1.13;;;1.00;;
48871;SDS011;36154;51.674;7.824;2023-04-03T13:49:22;3.72;;;1.08;;
48871;SDS011;36154;51.674;7.824;2023-04-03T13:51:54;2.25;;;1.60;;
48871;SDS011;36154;51.674;7.824;2023-04-03T13:54:22;3.00;;;1.50;;
48871;SDS011;36154;51.674;7.824;2023-04-03T13:56:53;4.18;;;1.33;;
48871;SDS011;36154;51.674;7.824;2023-04-03T13:59:24;5.00;;;1.23;;
48871;SDS011;36154;51.674;7.824;2023-04-03T14:07:08;1.50;;;0.90;;
48871;SDS011;36154;51.674;7.824;2023-04-03T14:09:34;3.13;;;1.08;;
48871;SDS011;36154;51.674;7.824;2023-04-03T14:12:02;2.40;;;0.90;;
48871;SDS011;36154;51.674;7.824;2023-04-03T14:14:34;1.95;;;0.90;;
48871;SDS011;36154;51.674;7.824;2023-04-03T14:17:01;1.15;;;0.90;;
48871;SDS011;36154;51.674;7.824;2023-04-03T14:19:35;1.67;;;1.02;;
48871;SDS011;36154;51.674;7.824;2023-04-03T14:22:10;1.48;;;0.90;;
48871;SDS011;36154;51.674;7.824;2023-04-03T14:24:41;0.70;;;0.60;;
48871;SDS011;36154;51.674;7.824;2023-04-03T14:27:50;2.13;;;0.95;;
48871;SDS011;36154;51.674;7.824;2023-04-03T14:30:01;2.53;;;1.13;;
48871;SDS011;36154;51.674;7.824;2023-04-03T14:32:28;1.00;;;0.88;;
48871;SDS011;36154;51.674;7.824;2023-04-03T14:34:53;1.98;;;1.17;;
48871;SDS011;36154;51.674;7.824;2023-04-03T14:37:21;1.00;;;0.80;;
48871;SDS011;36154;51.674;7.824;2023-04-03T14:39:50;0.95;;;0.90;;
48871;SDS011;36154;51.674;7.824;2023-04-03T14:42:19;3.67;;;0.85;;
48871;SDS011;36154;51.674;7.824;2023-04-03T14:44:46;1.20;;;1.10;;
48871;SDS011;36154;51.674;7.824;2023-04-03T14:47:16;0.98;;;0.70;;
48871;SDS011;36154;51.674;7.824;2023-04-03T14:49:45;1.58;;;1.48;;
48871;SDS011;36154;51.674;7.824;2023-04-03T14:54:44;1.83;;;1.02;;
48871;SDS011;36154;51.674;7.824;2023-04-03T14:57:10;3.47;;;1.20;;
48871;SDS011;36154;51.674;7.824;2023-04-03T14:59:38;0.93;;;0.80;;
48871;SDS011;36154;51.674;7.824;2023-04-03T15:02:10;1.25;;;1.00;;
48871;SDS011;36154;51.674;7.824;2023-04-03T15:04:58;0.88;;;0.75;;
48871;SDS011;36154;51.674;7.824;2023-04-03T15:07:25;2.20;;;1.00;;
48871;SDS011;36154;51.674;7.824;2023-04-03T15:09:53;1.10;;;0.80;;
48871;SDS011;36154;51.674;7.824;2023-04-03T15:12:21;1.58;;;0.90;;
48871;SDS011;36154;51.674;7.824;2023-04-03T15:14:46;0.90;;;0.90;;
48871;SDS011;36154;51.674;7.824;2023-04-03T15:17:15;0.98;;;0.98;;
48871;SDS011;36154;51.674;7.824;2023-04-03T15:19:42;1.40;;;0.90;;
48871;SDS011;36154;51.674;7.824;2023-04-03T15:22:15;0.85;;;0.85;;
48871;SDS011;36154;51.674;7.824;2023-04-03T15:27:08;1.30;;;0.70;;
48871;SDS011;36154;51.674;7.824;2023-04-03T15:29:35;0.90;;;0.90;;
48871;SDS011;36154;51.674;7.824;2023-04-03T15:32:01;0.75;;;0.75;;
48871;SDS011;36154;51.674;7.824;2023-04-03T15:34:27;1.50;;;0.98;;
48871;SDS011;36154;51.674;7.824;2023-04-03T15:36:53;0.90;;;0.88;;
48871;SDS011;36154;51.674;7.824;2023-04-03T15:39:18;0.88;;;0.80;;
48871;SDS011;36154;51.674;7.824;2023-04-03T15:41:44;3.38;;;0.95;;
48871;SDS011;36154;51.674;7.824;2023-04-03T15:44:10;1.08;;;1.05;;
48871;SDS011;36154;51.674;7.824;2023-04-03T15:46:37;0.85;;;0.80;;
48871;SDS011;36154;51.674;7.824;2023-04-03T15:49:03;1.55;;;0.90;;
48871;SDS011;36154;51.674;7.824;2023-04-03T15:51:28;0.75;;;0.70;;
48871;SDS011;36154;51.674;7.824;2023-04-03T15:53:54;6.35;;;2.22;;
48871;SDS011;36154;51.674;7.824;2023-04-03T15:56:19;6.78;;;1.75;;
48871;SDS011;36154;51.674;7.824;2023-04-03T15:58:44;3.80;;;1.95;;
48871;SDS011;36154;51.674;7.824;2023-04-03T16:01:10;7.40;;;1.80;;
48871;SDS011;36154;51.674;7.824;2023-04-03T16:03:36;3.38;;;1.73;;
48871;SDS011;36154;51.674;7.824;2023-04-03T16:06:03;2.13;;;1.25;;
48871;SDS011;36154;51.674;7.824;2023-04-03T16:08:29;3.30;;;1.08;;
48871;SDS011;36154;51.674;7.824;2023-04-03T16:10:54;1.65;;;1.13;;
48871;SDS011;36154;51.674;7.824;2023-04-03T16:13:20;1.30;;;0.93;;
48871;SDS011;36154;51.674;7.824;2023-04-03T16:15:45;3.58;;;0.93;;
48871;SDS011;36154;51.674;7.824;2023-04-03T16:18:10;2.42;;;0.93;;
48871;SDS011;36154;51.674;7.824;2023-04-03T16:20:37;1.40;;;1.08;;
48871;SDS011;36154;51.674;7.824;2023-04-03T16:23:04;0.60;;;0.60;;
48871;SDS011;36154;51.674;7.824;2023-04-03T16:25:29;1.50;;;0.80;;
48871;SDS011;36154;51.674;7.824;2023-04-03T16:27:56;1.33;;;1.00;;
48871;SDS011;36154;51.674;7.824;2023-04-03T16:30:21;1.90;;;0.80;;
48871;SDS011;36154;51.674;7.824;2023-04-03T16:32:49;1.42;;;0.70;;